Time;durP1;ratioP1;P1;durP2;ratioP2;P2;SDS_P1;SDS_P2;PMS_P1;PMS_P2;Temp;Humidity;BMP_temperature;BMP_pressure;BME280_temperature;BME280_humidity;BME280_pressure;Samples;Min_cycle;Max_cycle;Signal;HPM_P1;HPM_P2
2023/10/29 00:00:33;;;;;;;19.40;9.90;;;10.20;99.90;;;;;;4984999;28;20616;-74
2023/10/29 00:03:06;;;;;;;16.25;11.13;;;10.20;99.90;;;;;;4983303;28;20053;-77
2023/10/29 00:05:31;;;;;;;18.52;10.43;;;10.20;99.90;;;;;;4967622;28;20497;-82
2023/10/29 00:07:59;;;;;;;16.10;9.90;;;10.20;99.90;;;;;;4981845;28;20038;-75
2023/10/29 00:10:25;;;;;;;12.02;8.02;;;10.20;99.90;;;;;;4988699;28;20085;-78
2023/10/29 00:12:51;;;;;;;15.23;8.77;;;10.20;99.90;;;;;;4982498;28;20084;-79
2023/10/29 00:15:35;;;;;;;14.55;7.72;;;10.20;99.90;;;;;;4966634;28;20068;-81
2023/10/29 00:18:08;;;;;;;14.35;8.63;;;10.20;99.90;;;;;;4983279;28;20053;-79
2023/10/29 00:20:37;;;;;;;16.65;7.65;;;10.30;99.90;;;;;;4983514;28;20065;-79
2023/10/29 00:23:13;;;;;;;17.38;7.88;;;10.10;99.90;;;;;;4965617;28;20050;-83
2023/10/29 00:25:39;;;;;;;14.75;9.23;;;10.30;99.90;;;;;;4982033;28;20080;-77
2023/10/29 00:28:05;;;;;;;14.57;7.90;;;10.30;99.90;;;;;;4982721;28;20084;-80
2023/10/29 00:30:31;;;;;;;15.35;8.73;;;10.30;99.90;;;;;;4984675;28;20053;-76
2023/10/29 00:32:59;;;;;;;16.20;9.52;;;10.30;99.90;;;;;;4984308;28;20054;-81
2023/10/29 00:35:25;;;;;;;12.63;8.55;;;10.30;99.90;;;;;;4983544;28;20088;-82
2023/10/29 00:37:51;;;;;;;17.90;10.68;;;10.40;99.90;;;;;;4999388;28;20384;-78
2023/10/29 00:40:17;;;;;;;19.75;10.70;;;10.40;99.90;;;;;;4979073;28;20062;-79
2023/10/29 00:42:45;;;;;;;19.38;10.98;;;10.30;99.90;;;;;;4958050;28;20107;-81
2023/10/29 00:45:11;;;;;;;25.15;13.52;;;10.40;99.90;;;;;;4976692;28;20057;-77
2023/10/29 00:47:37;;;;;;;25.70;12.07;;;10.40;99.90;;;;;;4997028;28;20054;-80
2023/10/29 00:50:22;;;;;;;19.17;12.48;;;10.40;99.90;;;;;;4980106;28;20051;-78
2023/10/29 00:52:49;;;;;;;31.55;14.52;;;10.50;99.90;;;;;;4980180;28;20050;-76
2023/10/29 00:55:17;;;;;;;28.48;12.75;;;10.50;99.90;;;;;;4981085;28;20054;-77
2023/10/29 00:57:43;;;;;;;17.85;11.43;;;10.50;99.90;;;;;;4968275;28;20046;-81
2023/10/29 01:00:31;;;;;;;23.73;12.73;;;10.50;99.90;;;;;;4981143;28;20046;-82
2023/10/29 01:02:59;;;;;;;25.10;12.90;;;10.60;99.90;;;;;;4981991;28;20050;-77
2023/10/29 01:05:25;;;;;;;13.63;8.93;;;10.50;99.90;;;;;;4997845;28;20054;-83
2023/10/29 01:07:51;;;;;;;22.50;11.10;;;10.60;99.90;;;;;;4982249;28;20042;-82
2023/10/29 01:10:19;;;;;;;18.02;9.82;;;10.60;99.90;;;;;;4980977;28;20575;-82
2023/10/29 01:12:45;;;;;;;12.43;7.65;;;10.70;99.90;;;;;;4980914;28;20146;-83
2023/10/29 01:15:11;;;;;;;15.73;9.57;;;10.60;99.90;;;;;;4964549;28;20121;-80
2023/10/29 01:17:36;;;;;;;19.60;10.93;;;10.70;99.90;;;;;;4980417;28;20415;-79
2023/10/29 01:20:03;;;;;;;23.15;12.23;;;10.70;99.90;;;;;;4979879;28;20042;-78
2023/10/29 01:22:29;;;;;;;22.15;13.40;;;10.70;99.90;;;;;;4996482;28;20286;-80
2023/10/29 01:24:58;;;;;;;16.95;11.23;;;10.70;99.90;;;;;;4979289;28;20054;-78
2023/10/29 01:27:23;;;;;;;18.65;10.82;;;10.80;99.90;;;;;;4979918;28;20050;-81
2023/10/29 01:29:51;;;;;;;22.55;13.38;;;10.80;99.90;;;;;;4980581;28;20050;-83
2023/10/29 01:32:19;;;;;;;23.08;12.90;;;10.80;99.90;;;;;;4989667;28;20089;-80
2023/10/29 01:34:45;;;;;;;19.67;12.10;;;10.80;99.90;;;;;;4979829;28;20046;-79
2023/10/29 01:37:11;;;;;;;19.38;11.20;;;8.40;99.90;;;;;;4980290;28;20089;-79
2023/10/29 01:39:37;;;;;;;26.33;14.20;;;10.80;99.90;;;;;;4984063;28;20635;-80
2023/10/29 01:42:03;;;;;;;22.95;12.77;;;10.80;99.90;;;;;;4977461;28;20057;-78
2023/10/29 01:44:31;;;;;;;23.70;12.57;;;10.80;99.90;;;;;;4960014;28;20108;-78
2023/10/29 01:46:59;;;;;;;25.33;13.02;;;10.90;99.90;;;;;;4980811;28;20049;-82
2023/10/29 01:49:25;;;;;;;18.02;12.30;;;10.90;99.90;;;;;;4977488;28;20107;-75
2023/10/29 01:51:51;;;;;;;34.38;14.85;;;10.90;99.90;;;;;;4965061;28;20050;-75
2023/10/29 01:54:16;;;;;;;31.52;16.27;;;10.90;99.90;;;;;;4990081;28;20054;-82
2023/10/29 01:56:45;;;;;;;24.02;13.38;;;10.90;99.90;;;;;;4987904;28;20621;-81
2023/10/29 01:59:17;;;;;;;21.05;12.88;;;10.90;99.90;;;;;;4975427;28;20078;-76
2023/10/29 02:01:43;;;;;;;16.70;10.98;;;10.90;99.90;;;;;;4943314;28;20715;-80
2023/10/29 02:04:10;;;;;;;30.65;14.25;;;11.00;99.90;;;;;;4988971;28;20194;-80
2023/10/29 02:06:39;;;;;;;22.05;11.80;;;11.00;99.90;;;;;;4968552;28;20065;-79
2023/10/29 02:09:08;;;;;;;45.25;16.35;;;11.00;99.90;;;;;;4969510;28;20086;-77
2023/10/29 02:11:38;;;;;;;20.08;10.18;;;11.00;99.90;;;;;;4983519;28;20057;-77
2023/10/29 02:14:07;;;;;;;18.05;10.38;;;11.00;99.90;;;;;;4979105;28;20455;-80
2023/10/29 02:16:32;;;;;;;20.33;10.80;;;11.00;99.90;;;;;;4979252;28;20046;-86
2023/10/29 02:18:58;;;;;;;20.08;10.85;;;11.00;99.90;;;;;;4964956;28;20058;-80
2023/10/29 02:21:26;;;;;;;12.18;8.95;;;11.00;99.90;;;;;;4969890;28;20890;-76
2023/10/29 02:23:53;;;;;;;22.55;11.80;;;11.00;99.90;;;;;;4971644;28;20041;-79
2023/10/29 02:26:19;;;;;;;11.57;8.13;;;11.00;99.90;;;;;;4970184;28;20067;-80
2023/10/29 02:28:45;;;;;;;27.25;12.30;;;11.00;99.90;;;;;;4970058;28;20060;-76
2023/10/29 02:31:33;;;;;;;19.80;10.13;;;11.00;99.90;;;;;;4988511;28;20049;-76
2023/10/29 02:34:01;;;;;;;17.63;8.68;;;11.00;99.90;;;;;;4967098;28;20046;-79
2023/10/29 02:36:27;;;;;;;13.13;6.93;;;11.00;99.90;;;;;;4965695;28;20109;-77
2023/10/29 02:38:58;;;;;;;18.00;7.38;;;11.00;99.90;;;;;;4945858;28;20651;-77
2023/10/29 02:41:26;;;;;;;18.92;9.32;;;11.00;99.90;;;;;;4969938;28;20051;-76
2023/10/29 02:43:54;;;;;;;16.85;8.18;;;11.00;99.90;;;;;;4989151;28;20050;-79
2023/10/29 02:46:20;;;;;;;24.23;10.10;;;11.00;99.90;;;;;;4974395;28;20058;-76
2023/10/29 02:48:46;;;;;;;17.15;8.23;;;11.00;99.90;;;;;;4977806;28;20065;-77
2023/10/29 02:51:17;;;;;;;17.33;7.93;;;11.00;99.90;;;;;;4972297;28;20089;-79
2023/10/29 02:53:45;;;;;;;11.90;6.53;;;11.00;99.90;;;;;;4950439;28;20497;-75
2023/10/29 02:56:18;;;;;;;19.20;8.27;;;11.00;99.90;;;;;;4958133;28;20068;-82
2023/10/29 02:58:46;;;;;;;14.55;7.57;;;11.00;99.90;;;;;;4967954;28;20080;-83
2023/10/29 03:01:15;;;;;;;9.90;6.45;;;11.00;99.90;;;;;;4980707;28;20048;-83
2023/10/29 03:03:44;;;;;;;9.60;5.20;;;11.00;99.90;;;;;;4963893;28;20052;-80
2023/10/29 03:06:10;;;;;;;11.30;5.50;;;11.10;99.90;;;;;;4996432;28;20112;-77
2023/10/29 03:08:38;;;;;;;19.08;7.50;;;11.10;99.90;;;;;;4968597;28;20054;-74
2023/10/29 03:11:07;;;;;;;9.73;4.63;;;11.00;99.90;;;;;;4974111;28;20468;-76
2023/10/29 03:13:32;;;;;;;10.57;5.93;;;11.00;99.90;;;;;;4984725;28;20554;-79
2023/10/29 03:15:58;;;;;;;18.75;6.00;;;11.00;99.90;;;;;;4964090;28;20049;-77
2023/10/29 03:18:29;;;;;;;10.32;5.57;;;11.10;99.90;;;;;;4979680;28;20121;-79
2023/10/29 03:20:58;;;;;;;13.52;4.53;;;11.10;99.90;;;;;;4994965;28;20049;-79
2023/10/29 03:23:24;;;;;;;11.05;5.00;;;11.40;99.90;;;;;;4978038;28;20061;-82
2023/10/29 03:28:50;;;;;;;8.10;4.57;;;11.10;99.90;;;;;;4967436;28;20053;-78
2023/10/29 03:31:19;;;;;;;22.88;8.00;;;11.10;99.90;;;;;;4986659;28;20073;-81
2023/10/29 03:33:46;;;;;;;11.50;5.60;;;11.10;99.90;;;;;;4973721;28;20049;-81
2023/10/29 03:36:12;;;;;;;11.52;4.70;;;11.20;99.90;;;;;;4980774;28;20046;-77
2023/10/29 03:38:38;;;;;;;13.73;4.55;;;11.10;99.90;;;;;;4983408;28;20061;-75
2023/10/29 03:41:17;;;;;;;12.35;5.60;;;11.10;99.90;;;;;;4953136;28;20054;-81
2023/10/29 03:43:43;;;;;;;9.27;4.43;;;11.20;99.90;;;;;;4978675;28;20511;-81
2023/10/29 03:46:10;;;;;;;12.05;5.03;;;9.20;99.90;;;;;;4981893;28;20061;-78
2023/10/29 03:48:42;;;;;;;10.40;3.72;;;11.20;99.90;;;;;;4973560;28;20058;-79
2023/10/29 03:51:10;;;;;;;;;;;11.20;99.90;;;;;;4954544;28;20214;-75
2023/10/29 03:53:38;;;;;;;8.73;3.53;;;11.30;99.90;;;;;;4947638;28;19926;-84
2023/10/29 03:56:05;;;;;;;8.43;3.95;;;11.30;99.90;;;;;;4973557;28;20112;-77
2023/10/29 03:58:31;;;;;;;8.93;3.83;;;11.20;99.90;;;;;;4982651;28;20046;-76
2023/10/29 04:00:57;;;;;;;11.10;4.80;;;11.20;99.90;;;;;;4971877;28;20042;-78
2023/10/29 04:03:23;;;;;;;6.85;3.10;;;11.20;99.90;;;;;;4970303;28;20086;-76
2023/10/29 04:05:56;;;;;;;8.88;3.40;;;11.20;99.90;;;;;;4990815;28;20054;-77
2023/10/29 04:08:22;;;;;;;5.90;3.22;;;11.30;99.90;;;;;;4958977;28;20180;-77
2023/10/29 04:10:50;;;;;;;11.95;4.15;;;11.30;99.90;;;;;;4979616;28;20761;-77
2023/10/29 04:13:16;;;;;;;7.80;3.05;;;11.40;99.90;;;;;;4973541;28;20057;-78
2023/10/29 04:15:42;;;;;;;12.35;4.68;;;11.30;99.90;;;;;;4980287;28;20054;-79
2023/10/29 04:18:07;;;;;;;7.70;2.60;;;11.30;99.90;;;;;;4966198;28;20081;-83
2023/10/29 04:20:33;;;;;;;9.40;2.28;;;11.60;99.90;;;;;;4982071;28;20129;-81
2023/10/29 04:22:59;;;;;;;7.75;2.33;;;11.30;99.90;;;;;;4970529;28;20057;-76
2023/10/29 04:25:25;;;;;;;8.32;2.25;;;11.40;99.90;;;;;;4974437;28;20085;-77
2023/10/29 04:27:51;;;;;;;7.20;3.60;;;13.80;99.90;;;;;;4954667;28;20046;-74
2023/10/29 04:30:24;;;;;;;11.85;3.03;;;11.40;99.90;;;;;;4949388;28;20538;-76
2023/10/29 04:32:50;;;;;;;6.03;3.20;;;11.40;99.90;;;;;;4978396;28;20092;-76
2023/10/29 04:35:16;;;;;;;5.57;3.28;;;11.30;99.90;;;;;;4969789;28;20133;-78
2023/10/29 04:37:42;;;;;;;6.97;2.85;;;11.40;99.90;;;;;;4966543;28;20061;-76
2023/10/29 04:40:08;;;;;;;8.35;2.33;;;11.30;99.90;;;;;;4979447;28;20058;-76
2023/10/29 04:42:47;;;;;;;6.65;2.72;;;11.30;99.90;;;;;;4973424;28;20046;-75
2023/10/29 04:45:13;;;;;;;7.40;2.22;;;11.30;99.90;;;;;;4965773;28;20046;-75
2023/10/29 04:48:43;;;;;;;4.15;1.38;;;11.30;99.90;;;;;;4953007;23;20082;-78
2023/10/29 04:51:10;;;;;;;7.43;1.67;;;11.20;99.90;;;;;;4975318;28;20246;-73
2023/10/29 04:53:37;;;;;;;5.35;1.65;;;11.20;99.90;;;;;;4962087;28;20047;-78
2023/10/29 04:59:42;;;;;;;4.53;1.73;;;11.30;99.90;;;;;;4998738;23;20046;-79
2023/10/29 05:02:11;;;;;;;6.93;1.60;;;11.20;99.90;;;;;;5010321;28;20483;-79
2023/10/29 05:04:37;;;;;;;5.25;1.20;;;11.20;99.90;;;;;;4991682;28;20042;-75
2023/10/29 05:07:03;;;;;;;7.43;2.92;;;11.20;99.90;;;;;;4998830;28;20535;-80
2023/10/29 05:09:36;;;;;;;5.07;1.73;;;11.20;99.90;;;;;;4981984;28;20081;-76
2023/10/29 05:12:07;;;;;;;7.32;1.52;;;11.10;99.90;;;;;;4988999;28;20070;-76
2023/10/29 05:14:40;;;;;;;7.38;1.27;;;11.10;99.90;;;;;;4986697;28;20066;-79
2023/10/29 05:17:06;;;;;;;3.92;1.10;;;11.10;99.90;;;;;;4980964;28;20053;-75
2023/10/29 05:19:35;;;;;;;8.75;1.30;;;11.00;99.90;;;;;;4991745;28;20057;-76
2023/10/29 05:22:01;;;;;;;3.30;1.15;;;11.00;99.90;;;;;;5005037;28;20050;-76
2023/10/29 05:24:29;;;;;;;4.80;0.82;;;11.00;99.90;;;;;;4988567;28;20050;-76
2023/10/29 05:27:05;;;;;;;4.57;1.23;;;11.00;99.90;;;;;;4983370;28;20048;-77
2023/10/29 05:29:38;;;;;;;7.07;1.38;;;11.00;99.90;;;;;;5001941;28;20163;-74
2023/10/29 05:32:04;;;;;;;8.38;1.50;;;11.00;99.90;;;;;;4984322;28;20115;-77
2023/10/29 05:34:30;;;;;;;4.03;0.70;;;10.90;99.90;;;;;;4992817;28;20050;-74
2023/10/29 05:36:56;;;;;;;5.70;0.93;;;10.90;99.90;;;;;;4999297;28;20045;-71
2023/10/29 05:39:22;;;;;;;2.42;0.82;;;10.90;99.90;;;;;;5005546;28;20046;-77
2023/10/29 05:41:48;;;;;;;5.72;1.15;;;10.90;99.90;;;;;;4972882;28;20470;-74
2023/10/29 05:44:14;;;;;;;4.03;1.55;;;10.90;99.90;;;;;;4984168;28;20088;-78
2023/10/29 05:46:40;;;;;;;3.08;1.30;;;10.90;99.90;;;;;;4989517;28;20433;-79
2023/10/29 05:49:07;;;;;;;5.97;1.48;;;10.90;99.90;;;;;;5002196;28;20041;-78
2023/10/29 05:51:33;;;;;;;3.78;1.15;;;10.80;99.90;;;;;;4983571;28;20679;-78
2023/10/29 05:54:01;;;;;;;3.03;0.80;;;10.80;99.90;;;;;;4999222;28;20152;-78
2023/10/29 05:56:27;;;;;;;4.88;0.95;;;10.80;99.90;;;;;;5003269;28;20049;-79
2023/10/29 05:58:55;;;;;;;5.95;1.60;;;10.80;99.90;;;;;;4986146;28;20054;-72
2023/10/29 06:01:22;;;;;;;2.90;0.75;;;10.80;99.90;;;;;;4964839;28;20046;-75
2023/10/29 06:03:49;;;;;;;7.72;0.93;;;10.80;99.90;;;;;;4985784;28;20878;-74
2023/10/29 06:06:15;;;;;;;4.43;0.80;;;10.90;99.90;;;;;;4963404;28;20197;-73
2023/10/29 06:08:41;;;;;;;5.55;0.90;;;10.90;99.90;;;;;;4959778;28;20524;-77
2023/10/29 06:11:08;;;;;;;3.58;0.77;;;10.90;99.90;;;;;;4969863;28;20049;-74
2023/10/29 06:13:36;;;;;;;5.88;1.08;;;11.00;99.90;;;;;;4964597;28;20054;-75
2023/10/29 06:16:09;;;;;;;4.35;0.75;;;11.00;99.90;;;;;;4964773;28;20062;-74
2023/10/29 06:18:35;;;;;;;;;;;10.30;99.90;;;;;;4981247;28;20104;-77
2023/10/29 06:21:03;;;;;;;7.53;1.10;;;11.00;99.90;;;;;;4965456;28;19925;-76
2023/10/29 06:23:34;;;;;;;10.70;1.05;;;11.00;99.90;;;;;;4976106;28;20053;-75
2023/10/29 06:26:08;;;;;;;2.72;0.70;;;11.10;99.90;;;;;;4975831;28;20093;-75
2023/10/29 06:28:34;;;;;;;4.88;0.93;;;11.10;99.90;;;;;;4962468;28;20926;-76
2023/10/29 06:31:00;;;;;;;6.05;1.05;;;11.10;99.90;;;;;;4975848;28;20461;-75
2023/10/29 06:33:26;;;;;;;5.60;0.55;;;11.00;99.90;;;;;;4962091;28;20045;-71
2023/10/29 06:35:52;;;;;;;1.95;0.47;;;11.00;99.90;;;;;;4977310;28;20050;-77
2023/10/29 06:38:21;;;;;;;5.78;1.25;;;11.00;99.90;;;;;;4983396;28;20150;-74
2023/10/29 06:40:56;;;;;;;6.07;0.75;;;11.00;99.90;;;;;;4965946;28;20089;-81
2023/10/29 06:43:24;;;;;;;8.20;1.27;;;11.00;99.90;;;;;;4977870;28;20047;-75
2023/10/29 06:45:50;;;;;;;5.38;0.98;;;11.10;99.90;;;;;;4968274;28;20061;-75
2023/10/29 06:48:35;;;;;;;1.38;0.40;;;11.10;99.90;;;;;;4971097;28;20059;-75
2023/10/29 06:51:02;;;;;;;3.65;0.60;;;11.20;99.90;;;;;;4959304;28;20124;-76
2023/10/29 06:53:28;;;;;;;1.23;0.47;;;11.20;99.90;;;;;;4989918;28;20056;-74
2023/10/29 06:55:54;;;;;;;5.22;1.27;;;11.20;99.90;;;;;;4990042;28;20141;-77
2023/10/29 06:58:41;;;;;;;6.45;0.85;;;11.20;99.90;;;;;;4969025;28;20149;-78
2023/10/29 07:01:10;;;;;;;3.92;0.50;;;11.20;99.90;;;;;;4979583;28;20081;-72
2023/10/29 07:03:54;;;;;;;2.55;0.35;;;11.20;99.90;;;;;;4979203;28;20049;-75
2023/10/29 07:06:20;;;;;;;3.72;0.63;;;11.20;99.90;;;;;;4990154;28;20140;-74
2023/10/29 07:08:47;;;;;;;3.45;0.55;;;11.20;99.90;;;;;;4952146;28;20550;-75
2023/10/29 07:11:13;;;;;;;4.88;0.93;;;11.30;99.90;;;;;;4971224;28;20050;-75
2023/10/29 07:13:44;;;;;;;4.25;0.40;;;9.90;99.90;;;;;;4986442;28;20057;-72
2023/10/29 07:16:10;;;;;;;3.50;0.52;;;11.30;99.90;;;;;;5001228;28;20144;-72
2023/10/29 07:18:37;;;;;;;4.32;0.47;;;11.30;99.90;;;;;;4973168;28;20046;-75
2023/10/29 07:21:06;;;;;;;4.25;0.43;;;11.30;99.90;;;;;;4983002;28;20054;-76
2023/10/29 07:23:32;;;;;;;3.70;0.63;;;11.30;99.90;;;;;;4971017;28;20543;-74
2023/10/29 07:25:58;;;;;;;3.47;0.60;;;11.30;99.90;;;;;;4967797;28;20062;-76
2023/10/29 07:28:29;;;;;;;5.55;0.40;;;11.20;99.90;;;;;;4984117;28;20069;-74
2023/10/29 07:30:55;;;;;;;5.80;0.80;;;11.20;99.90;;;;;;4999451;28;20101;-72
2023/10/29 07:33:21;;;;;;;3.22;0.77;;;11.20;99.90;;;;;;4959146;28;21073;-74
2023/10/29 07:35:47;;;;;;;3.60;0.57;;;11.10;99.90;;;;;;4966483;28;20055;-77
2023/10/29 07:38:13;;;;;;;4.75;0.73;;;11.00;99.90;;;;;;4981043;28;20127;-76
2023/10/29 07:41:06;;;;;;;2.42;0.40;;;11.00;99.90;;;;;;4985094;28;20057;-74
2023/10/29 07:43:31;;;;;;;;;;;11.00;99.90;;;;;;4963451;28;20062;-73
2023/10/29 07:46:02;;;;;;;8.18;0.80;;;11.10;99.90;;;;;;4951891;28;20057;-73
2023/10/29 07:48:28;;;;;;;5.70;0.60;;;11.20;99.90;;;;;;4981006;28;20081;-76
2023/10/29 07:50:58;;;;;;;14.45;1.55;;;11.20;99.90;;;;;;4967610;28;20081;-74
2023/10/29 07:53:30;;;;;;;5.18;0.80;;;11.20;99.90;;;;;;4969480;28;20046;-75
2023/10/29 07:56:25;;;;;;;;;;;11.30;99.90;;;;;;4986727;28;20058;-73
2023/10/29 07:59:15;;;;;;;5.05;0.47;;;11.40;99.90;;;;;;4985544;28;19979;-73
2023/10/29 08:01:41;;;;;;;4.53;0.70;;;11.50;99.90;;;;;;5000694;28;20050;-73
2023/10/29 08:04:51;;;;;;;;;;;;;;;;;;;;;
2023/10/29 08:07:21;;;;;;;4.20;0.50;;;11.60;99.90;;;;;;4979547;28;20117;-75
2023/10/29 08:11:37;;;;;;;;;;;;;;;;;;;;;
2023/10/29 08:17:39;;;;;;;4.32;0.63;;;11.50;99.90;;;;;;4773599;29;20115;-75
2023/10/29 08:20:20;;;;;;;7.13;0.70;;;11.50;99.90;;;;;;4739465;29;20062;-75
2023/10/29 08:23:37;;;;;;;3.53;0.73;;;11.50;99.90;;;;;;4753618;29;20066;-77
2023/10/29 08:26:04;;;;;;;7.03;0.60;;;11.50;99.90;;;;;;4964912;23;20061;-73
2023/10/29 08:28:30;;;;;;;7.35;0.50;;;11.50;99.90;;;;;;4968645;28;20153;-77
2023/10/29 08:30:56;;;;;;;7.43;0.73;;;11.50;99.90;;;;;;4981273;28;20050;-80
2023/10/29 08:33:22;;;;;;;4.95;0.68;;;11.50;99.90;;;;;;4979845;28;20052;-72
2023/10/29 08:35:51;;;;;;;6.85;0.50;;;11.60;99.90;;;;;;4958608;23;20043;-77
2023/10/29 08:38:57;;;;;;;5.43;0.40;;;11.60;99.90;;;;;;4968516;28;20054;-74
2023/10/29 08:41:37;;;;;;;4.00;0.35;;;11.60;99.90;;;;;;4957278;28;20156;-73
2023/10/29 08:44:05;;;;;;;9.90;0.60;;;11.60;99.90;;;;;;4991334;23;20687;-75
2023/10/29 08:46:34;;;;;;;6.70;0.50;;;11.70;99.90;;;;;;4970897;28;20161;-72
2023/10/29 08:49:38;;;;;;;8.27;1.10;;;11.70;99.90;;;;;;4960417;28;20058;-73
2023/10/29 08:52:04;;;;;;;7.68;0.77;;;11.70;99.90;;;;;;4963546;28;20137;-76
2023/10/29 08:54:35;;;;;;;5.63;0.40;;;11.70;99.90;;;;;;4984855;28;20134;-73
2023/10/29 08:57:01;;;;;;;5.28;0.40;;;11.80;99.90;;;;;;4966412;28;20116;-73
2023/10/29 08:59:27;;;;;;;5.47;0.50;;;11.80;99.90;;;;;;4978369;28;20086;-75
2023/10/29 09:01:53;;;;;;;7.13;0.70;;;11.90;99.90;;;;;;4961549;28;20090;-74
2023/10/29 09:04:20;;;;;;;6.10;0.50;;;12.10;99.90;;;;;;4967571;28;20147;-74
2023/10/29 09:06:46;;;;;;;5.35;0.45;;;12.20;99.90;;;;;;4968282;28;20060;-74
2023/10/29 09:09:48;;;;;;;5.80;0.30;;;12.30;99.90;;;;;;4951228;23;20161;-75
2023/10/29 09:12:47;;;;;;;5.43;0.57;;;12.30;99.90;;;;;;4948544;28;20056;-72
2023/10/29 09:15:18;;;;;;;7.32;0.73;;;12.40;99.90;;;;;;4891412;29;20102;-73
2023/10/29 09:18:16;;;;;;;6.55;0.70;;;12.40;99.90;;;;;;4891963;29;20067;-75
2023/10/29 09:20:58;;;;;;;6.60;0.50;;;12.50;99.90;;;;;;4885261;29;20119;-73
2023/10/29 09:23:47;;;;;;;4.20;0.50;;;12.50;99.90;;;;;;4898140;29;20051;-74
2023/10/29 09:26:24;;;;;;;5.25;0.60;;;12.70;99.90;;;;;;4908594;29;20055;-75
2023/10/29 09:28:53;;;;;;;4.05;0.40;;;12.80;99.90;;;;;;4904277;29;20134;-74
2023/10/29 09:31:22;;;;;;;6.30;0.50;;;12.80;99.90;;;;;;4972364;23;20065;-74
2023/10/29 09:33:47;;;;;;;5.10;0.40;;;12.80;99.90;;;;;;4977265;28;20816;-73
2023/10/29 09:36:13;;;;;;;6.82;0.50;;;12.80;99.90;;;;;;4979082;28;20717;-72
2023/10/29 09:38:40;;;;;;;12.45;1.25;;;12.90;99.90;;;;;;4944399;28;20061;-71
2023/10/29 09:41:09;;;;;;;10.52;0.73;;;12.90;99.90;;;;;;4953440;28;20068;-76
2023/10/29 09:43:41;;;;;;;6.90;1.05;;;12.90;99.90;;;;;;4976651;28;20053;-77
2023/10/29 09:46:07;;;;;;;;;;;12.90;99.90;;;;;;4941182;28;20037;-77
2023/10/29 09:48:34;;;;;;;3.92;0.63;;;12.80;99.90;;;;;;4978297;28;19926;-77
2023/10/29 09:51:01;;;;;;;6.72;1.58;;;12.80;99.90;;;;;;4954751;28;20058;-73
2023/10/29 09:53:28;;;;;;;3.22;0.50;;;12.90;99.90;;;;;;4994348;28;20062;-73
2023/10/29 09:59:02;;;;;;;8.23;0.45;;;13.10;99.90;;;;;;4980734;23;20046;-71
2023/10/29 10:01:46;;;;;;;5.70;0.80;;;13.10;99.90;;;;;;4958342;28;20073;-74
2023/10/29 10:04:12;;;;;;;8.32;0.60;;;13.20;99.90;;;;;;4969535;28;20133;-74
2023/10/29 10:06:40;;;;;;;6.88;0.60;;;13.20;99.90;;;;;;4968346;28;20041;-74
2023/10/29 10:09:10;;;;;;;6.38;0.82;;;13.30;99.90;;;;;;4992966;28;21160;-74
2023/10/29 10:11:36;;;;;;;11.30;1.00;;;13.30;99.90;;;;;;4991408;28;20124;-76
2023/10/29 10:14:01;;;;;;;3.33;0.40;;;13.10;99.90;;;;;;4985263;28;20133;-78
2023/10/29 10:16:27;;;;;;;12.38;0.98;;;13.10;99.90;;;;;;4981392;28;20766;-74
2023/10/29 10:18:55;;;;;;;9.43;1.20;;;12.90;99.90;;;;;;4982270;28;20042;-75
2023/10/29 10:21:23;;;;;;;7.05;0.55;;;12.80;99.90;;;;;;4990378;28;20204;-77
2023/10/29 10:23:55;;;;;;;9.43;0.98;;;13.70;99.90;;;;;;4991238;28;20045;-77
2023/10/29 10:26:34;;;;;;;7.95;0.90;;;12.80;99.90;;;;;;5009126;28;20052;-77
2023/10/29 10:29:04;;;;;;;9.80;1.02;;;12.90;99.90;;;;;;4990502;28;20042;-73
2023/10/29 10:31:35;;;;;;;12.65;1.20;;;13.00;99.90;;;;;;4990382;28;20081;-74
2023/10/29 10:34:19;;;;;;;9.00;0.82;;;13.10;99.90;;;;;;4996967;28;20073;-78
2023/10/29 10:36:50;;;;;;;10.57;0.70;;;13.20;99.90;;;;;;5010961;28;20104;-74
2023/10/29 10:39:22;;;;;;;7.05;1.00;;;13.20;99.90;;;;;;4987122;28;20065;-77
2023/10/29 10:41:49;;;;;;;6.47;0.80;;;13.10;99.90;;;;;;5008991;28;20046;-76
2023/10/29 10:44:16;;;;;;;9.15;1.10;;;13.10;99.90;;;;;;4974157;28;20061;-74
2023/10/29 10:46:50;;;;;;;6.95;0.77;;;13.20;99.90;;;;;;4984052;28;20512;-78
2023/10/29 10:49:18;;;;;;;8.02;1.45;;;13.30;99.90;;;;;;4995457;28;20054;-74
2023/10/29 10:51:45;;;;;;;10.05;0.90;;;13.30;99.90;;;;;;5010223;28;20429;-75
2023/10/29 10:54:11;;;;;;;7.95;0.80;;;13.40;99.90;;;;;;4982847;28;20641;-77
2023/10/29 10:56:40;;;;;;;9.20;1.00;;;13.50;99.90;;;;;;4987032;28;20188;-78
2023/10/29 10:59:13;;;;;;;6.15;0.68;;;13.60;99.90;;;;;;4954431;28;20062;-75
2023/10/29 11:01:40;;;;;;;12.15;0.73;;;13.70;99.90;;;;;;4986021;28;20917;-77
2023/10/29 11:04:08;;;;;;;6.88;0.73;;;13.70;99.90;;;;;;4960525;28;20096;-78
2023/10/29 11:06:38;;;;;;;11.32;1.05;;;13.60;99.90;;;;;;4984775;28;20097;-75
2023/10/29 11:09:12;;;;;;;10.20;1.33;;;13.60;99.90;;;;;;4982272;28;20053;-75
2023/10/29 11:11:47;;;;;;;8.25;0.57;;;13.60;99.90;;;;;;4964736;28;20099;-76
2023/10/29 11:14:24;;;;;;;10.32;0.90;;;13.50;99.90;;;;;;4971928;28;20062;-76
2023/10/29 11:16:55;;;;;;;9.20;0.82;;;13.50;99.90;;;;;;4975318;28;20054;-76
2023/10/29 11:19:39;;;;;;;6.43;0.70;;;13.50;99.90;;;;;;4963209;28;20054;-74
2023/10/29 11:22:46;;;;;;;10.07;0.75;;;13.50;99.90;;;;;;4948729;28;20597;-76
2023/10/29 11:25:15;;;;;;;10.98;1.10;;;13.60;99.90;;;;;;4965685;28;20055;-75
2023/10/29 11:27:44;;;;;;;9.80;0.60;;;16.10;99.90;;;;;;4975891;28;20514;-75
2023/10/29 11:30:12;;;;;;;5.03;0.45;;;13.70;99.90;;;;;;4968955;28;20120;-76
2023/10/29 11:32:39;;;;;;;10.43;0.98;;;13.70;99.90;;;;;;4956887;28;20046;-75
2023/10/29 11:35:19;;;;;;;5.63;0.57;;;13.70;99.90;;;;;;4960467;28;20042;-73
2023/10/29 11:37:46;;;;;;;6.07;0.95;;;13.60;99.90;;;;;;4938010;28;20565;-72
2023/10/29 11:40:30;;;;;;;7.68;0.73;;;13.50;99.90;;;;;;4962782;28;20065;-76
2023/10/29 11:43:13;;;;;;;9.05;0.80;;;13.40;99.90;;;;;;4936661;28;20478;-74
2023/10/29 11:45:39;;;;;;;5.53;0.60;;;13.30;99.90;;;;;;4965202;28;20062;-75
2023/10/29 11:48:28;;;;;;;9.75;0.98;;;13.30;99.90;;;;;;4981841;28;20100;-75
2023/10/29 11:51:03;;;;;;;7.00;0.60;;;13.20;99.90;;;;;;4970630;28;20055;-74
2023/10/29 11:53:30;;;;;;;8.60;1.33;;;13.20;99.90;;;;;;4968366;28;20053;-74
2023/10/29 11:56:16;;;;;;;2.03;0.55;;;13.20;99.90;;;;;;4965757;28;20062;-73
2023/10/29 11:58:42;;;;;;;5.72;0.85;;;13.20;99.90;;;;;;4937802;28;20066;-74
2023/10/29 12:01:08;;;;;;;8.88;0.63;;;13.20;99.90;;;;;;4948023;28;20050;-74
2023/10/29 12:03:34;;;;;;;6.80;0.52;;;13.20;99.90;;;;;;4947318;28;20066;-72
2023/10/29 12:06:00;;;;;;;6.00;0.70;;;13.20;99.90;;;;;;4935334;28;20058;-76
2023/10/29 12:08:29;;;;;;;7.68;0.40;;;13.30;99.90;;;;;;4960511;28;20050;-78
2023/10/29 12:10:58;;;;;;;8.13;0.50;;;13.30;99.90;;;;;;4927960;28;20058;-74
2023/10/29 12:13:24;;;;;;;12.45;1.13;;;12.30;99.90;;;;;;4938547;28;20046;-75
2023/10/29 12:15:58;;;;;;;6.38;0.73;;;13.40;99.90;;;;;;4947777;28;20053;-75
2023/10/29 12:18:27;;;;;;;5.88;0.70;;;13.30;99.90;;;;;;4952169;28;20880;-76
2023/10/29 12:21:10;;;;;;;7.80;1.00;;;13.40;99.90;;;;;;4942030;28;20658;-75
2023/10/29 12:23:37;;;;;;;5.97;1.27;;;13.40;99.90;;;;;;4960261;28;20058;-75
2023/10/29 12:26:09;;;;;;;6.85;0.60;;;13.50;99.90;;;;;;4961786;28;20054;-74
2023/10/29 12:28:36;;;;;;;6.38;1.55;;;13.50;99.90;;;;;;4965266;28;20070;-76
2023/10/29 12:31:03;;;;;;;6.82;0.80;;;13.50;99.90;;;;;;4957730;28;20049;-75
2023/10/29 12:33:33;;;;;;;5.57;0.65;;;13.50;99.90;;;;;;4955145;28;20041;-77
2023/10/29 12:36:00;;;;;;;8.43;0.85;;;13.40;99.90;;;;;;4972710;28;20149;-76
2023/10/29 12:38:26;;;;;;;4.75;0.40;;;13.50;99.90;;;;;;4955050;28;20822;-76
2023/10/29 12:41:11;;;;;;;7.38;0.77;;;13.40;99.90;;;;;;4952628;28;20050;-76
2023/10/29 12:43:40;;;;;;;4.57;0.68;;;13.40;99.90;;;;;;4962236;28;20137;-76
2023/10/29 12:46:11;;;;;;;6.85;0.60;;;13.50;99.90;;;;;;4969266;28;20062;-75
2023/10/29 12:49:03;;;;;;;8.10;0.75;;;13.50;99.90;;;;;;4990250;28;20082;-75
2023/10/29 12:51:34;;;;;;;;;;;11.40;99.90;;;;;;4959543;28;20058;-74
2023/10/29 12:54:37;;;;;;;6.22;0.60;;;13.40;99.90;;;;;;4950664;28;20116;-75
2023/10/29 12:57:05;;;;;;;8.77;1.38;;;13.40;99.90;;;;;;4971103;28;20130;-76
2023/10/29 12:59:34;;;;;;;8.43;0.52;;;13.40;99.90;;;;;;4960266;28;20104;-75
2023/10/29 13:02:05;;;;;;;6.47;1.20;;;13.40;99.90;;;;;;4993581;28;20122;-75
2023/10/29 13:04:32;;;;;;;6.07;0.70;;;13.40;99.90;;;;;;4938641;28;20066;-76
2023/10/29 13:07:05;;;;;;;11.25;0.55;;;13.40;99.90;;;;;;4995447;28;20109;-77
2023/10/29 13:09:33;;;;;;;7.88;0.50;;;13.40;99.90;;;;;;4949891;28;20059;-75
2023/10/29 13:12:00;;;;;;;9.23;1.30;;;13.40;99.90;;;;;;4948076;28;20057;-77
2023/10/29 13:14:27;;;;;;;8.55;0.60;;;13.40;99.90;;;;;;4958071;28;20085;-76
2023/10/29 13:16:53;;;;;;;7.85;0.60;;;13.40;99.90;;;;;;4955110;28;20152;-77